Price, Texas
Current Conditions -  °F | °C
As of 1:15 PM on Monday 20 Oct 2014 (Local Time) from KRFI Reporting Station
Clear Clear  
Wind Chill: 75°   Ceiling: Unl
Heat Index: 75°   Visibility: 10mi
Dew Point: 53°   Wind: 3mph
Humidity: 45%   Direction: 10°N
Pressure: 30.09"   Gusts: NA
Location:  32.13°N, 94.94°W
Report Text: KRFI 201815Z AUTO 01003KT 10SM CLR 24/12 A3009 RMK AO2 T02410116
Loading
Personal Weather Stations






























Interactive Weather Map
Tropical Storm Tracking
New forecast layout! Learn more

10-Day Weather Forecast

Advertisements
Track Severe Weather on mobile